ADDS METAR Data INFO
IDs: Format: Raw Decoded Include TAF

Data at: 1148 UTC 21 Jun 2018

KDWU 211056Z AUTO 00000KT 10SM FEW030 22/21 A2983 RMK AO2 SLP099 T02170211
KDWU 210956Z AUTO 00000KT 9SM BKN039 OVC055 22/21 A2983 RMK AO2 SLP098 T02170211
KDWU 210856Z AUTO 00000KT 7SM BKN043 21/21 A2982 RMK AO2 TSE05 SLP093 T02110211 58007
KDWU 210822Z AUTO 00000KT 9SM FEW017 BKN048 21/21 A2983 RMK AO2 TSE05
KDWU 210809Z AUTO 00000KT 10SM BKN017 BKN110 21/21 A2983 RMK AO2 LTG DSNT NW TSE05
KDWU 210756Z AUTO 00000KT 9SM VCTS FEW017 21/21 A2983 RMK AO2 LTG DSNT ALQDS TSB50 SLP098 T02110211
KDWU 210656Z AUTO 00000KT 10SM CLR 21/21 A2983 RMK AO2 TSB03E37 SLP098 T02110211
KDWU 210643Z AUTO 00000KT 7SM CLR 21/21 A2983 RMK AO2 TSB03E37
KDWU 210609Z AUTO 00000KT 8SM VCTS CLR 22/22 A2984 RMK AO2 TSB03
KDWU 210556Z AUTO 00000KT 8SM CLR 22/22 A2984 RMK AO2 SLP101 T02170217 10233 20217 58004
KDWU 210456Z AUTO 00000KT 8SM SCT080 22/22 A2985 RMK AO2 SLP101 T02220217
KDWU 210356Z AUTO 00000KT 8SM FEW046 BKN080 OVC110 22/22 A2986 RMK AO2 LTG DSNT NE SLP106 T02220217 403110206
KDWU 210256Z AUTO 00000KT 10SM FEW080 22/22 A2986 RMK AO2 SLP105 T02220217 53015
KDWU 210156Z AUTO 00000KT 10SM CLR 22/22 A2984 RMK AO2 LTG DSNT N SLP099 T02220217
KDWU 210056Z AUTO 00000KT 10SM CLR 22/22 A2982 RMK AO2 LTG DSNT S SLP096 T02220217
KDWU 202256Z AUTO 00000KT 10SM CLR 22/22 A2983 RMK AO2 RAE56 SLP097 P0001 T02220217
KDWU 202156Z AUTO 00000KT 10SM -RA FEW032 BKN050 OVC095 22/21 A2985 RMK AO2 RAB31 SLP105 P0011 T02170211
KDWU 202154Z AUTO 00000KT 9SM -RA SCT032 BKN050 OVC090 22/21 A2985 RMK AO2 RAB31 P0011
KDWU 202144Z AUTO VRB04G14KT 2SM +RA BR SCT031 BKN050 OVC110 22/21 A2986 RMK AO2 RAB31 P0006
KDWU 202056Z AUTO 24006KT 10SM CLR 28/22 A2983 RMK AO2 SLP097 T02830217 56011
KDWU 201956Z AUTO VRB03KT 10SM CLR 24/20 A2984 RMK AO2 SLP101 T02440200
KDWU 201856Z AUTO 26007KT 10SM FEW120 28/22 A2984 RMK AO2 SLP102 T02780222
KDWU 201756Z AUTO VRB03KT 10SM CLR 29/24 A2987 RMK AO2 SLP108 T02940239 10306 20222 58012
KDWU 201656Z AUTO 28006KT 10SM SCT029 SCT038 29/23 A2988 RMK AO2 SLP114 T02940233
KDWU 201644Z AUTO 22006KT 10SM SCT029 BKN038 29/23 A2989 RMK AO2 TSNO
KDWU 201613Z AUTO VRB04KT 10SM BKN025 BKN030 29/23 A2989 RMK AO2
KDWU 201556Z AUTO 27009KT 10SM SCT025 29/23 A2989 RMK AO2 SLP118 T02890233
KDWU 201545Z AUTO 21006KT 10SM SCT025 29/23 A2989 RMK AO2
KDWU 201521Z AUTO 22005KT 10SM BKN023 28/23 A2990 RMK AO2
KDWU 201456Z AUTO 25006KT 10SM SCT019 28/23 A2990 RMK AO2 SLP120 T02830233 58011
KDWU 201356Z AUTO 00000KT 10SM CLR 26/24 A2991 RMK AO2 SLP125 T02560239
KDWU 201256Z AUTO 00000KT 10SM CLR 24/22 A2993 RMK AO2 SLP130 T02390222
KDWU 201156Z AUTO VRB03KT 10SM FEW041 22/21 A2993 RMK AO2 SLP133 7//// T02220211 10222 20206 53013
KDWU 201056Z AUTO 00000KT 10SM CLR 22/21 A2992 RMK AO2 SLP129 T02170206
KDWU 200956Z AUTO 00000KT 10SM CLR 21/21 A2991 RMK AO2 SLP124 T02110206
KDWU 200856Z AUTO 00000KT 10SM CLR 21/21 A2990 RMK AO2 SLP119 T02110206 56008
KDWU 200756Z AUTO 00000KT 10SM CLR 21/21 A2991 RMK AO2 SLP124 T02110206
KDWU 200656Z AUTO 00000KT 7SM CLR 21/21 A2991 RMK AO2 SLP123 T02110206
KDWU 200556Z AUTO 00000KT 10SM CLR 22/21 A2992 RMK AO2 RAE42 SLP128 P0000 60001 T02170211 10228 20217 58006
KDWU 200456Z AUTO 18003KT 10SM -RA SCT110 22/21 A2994 RMK AO2 RAB45 SLP133 P0000 T02220211
KDWU 200356Z AUTO 24003KT 10SM SCT050 SCT100 22/21 A2996 RMK AO2 LTG DSNT N-E TSE37RAB13E27 SLP139 P0000 T02220211 403390217
KDWU 200343Z AUTO VRB03KT 10SM BKN050 OVC100 22/22 A2996 RMK AO2 LTG DSNT NE AND E TSE37RAB13E27 P0000
KDWU 200256Z AUTO 00000KT 6SM TS BR SCT004 BKN060 22/22 A2994 RMK AO2 LTG DSNT NW-E TSB30 SLP133 60001 T02220217 51003
KDWU 200230Z AUTO 00000KT 6SM VCTS BR FEW004 22/22 A2995 RMK AO2 LTG DSNT W AND NW TSB30
KDWU 200156Z AUTO 00000KT 8SM FEW049 22/22 A2994 RMK AO2 LTG DSNT NE SLP134 P0001 T02220217
KDWU 200128Z AUTO 00000KT 4SM BR SCT005 23/22 A2994 RMK AO2 LTG DSNT NE
KDWU 200056Z AUTO 00000KT 6SM BR CLR 22/22 A2993 RMK AO2 LTG DSNT SE RAE55 SLP131 P0000 T02220222
KDWU 192356Z AUTO 00000KT 3SM -RA BR FEW055 BKN120 22/22 A2995 RMK AO2 SLP139 P0011 6//// T02220222 10339 20217 50009